sensor_id;sensor_type;location;lat;lon;timestamp;pressure;altitude;pressure_sealevel;temperature;humidity
21109;BME280;10712;52.944;9.098;2023-04-26T00:02:12;101511.06;;;12.55;46.74
21109;BME280;10712;52.944;9.098;2023-04-26T00:04:38;101517.28;;;12.56;46.69
21109;BME280;10712;52.944;9.098;2023-04-26T00:07:05;101514.69;;;12.54;46.65
21109;BME280;10712;52.944;9.098;2023-04-26T00:09:32;101516.84;;;12.48;46.88
21109;BME280;10712;52.944;9.098;2023-04-26T00:11:59;101520.75;;;12.58;46.75
21109;BME280;10712;52.944;9.098;2023-04-26T00:14:24;101523.91;;;12.49;46.63
21109;BME280;10712;52.944;9.098;2023-04-26T00:16:50;101522.25;;;12.46;46.68
21109;BME280;10712;52.944;9.098;2023-04-26T00:19:16;101517.97;;;12.44;47.01
21109;BME280;10712;52.944;9.098;2023-04-26T00:21:42;101524.47;;;12.38;47.12
21109;BME280;10712;52.944;9.098;2023-04-26T00:24:08;101522.44;;;12.43;47.14
21109;BME280;10712;52.944;9.098;2023-04-26T00:26:35;101519.50;;;12.48;47.07
21109;BME280;10712;52.944;9.098;2023-04-26T00:29:03;101515.91;;;12.49;47.21
21109;BME280;10712;52.944;9.098;2023-04-26T00:31:28;101524.59;;;12.52;47.25
21109;BME280;10712;52.944;9.098;2023-04-26T00:33:54;101520.03;;;12.54;46.85
21109;BME280;10712;52.944;9.098;2023-04-26T00:36:20;101517.44;;;12.53;47.23
21109;BME280;10712;52.944;9.098;2023-04-26T00:38:46;101525.56;;;12.51;47.14
21109;BME280;10712;52.944;9.098;2023-04-26T00:41:13;101529.19;;;12.50;47.37
21109;BME280;10712;52.944;9.098;2023-04-26T00:43:39;101523.50;;;12.56;47.34
21109;BME280;10712;52.944;9.098;2023-04-26T00:46:07;101528.66;;;12.59;47.06
21109;BME280;10712;52.944;9.098;2023-04-26T00:48:35;101530.56;;;12.57;47.06
21109;BME280;10712;52.944;9.098;2023-04-26T00:51:01;101525.47;;;12.53;47.18
21109;BME280;10712;52.944;9.098;2023-04-26T00:53:28;101530.56;;;12.57;47.13
21109;BME280;10712;52.944;9.098;2023-04-26T00:55:57;101526.94;;;12.58;47.10
21109;BME280;10712;52.944;9.098;2023-04-26T00:58:24;101521.59;;;12.58;46.98
21109;BME280;10712;52.944;9.098;2023-04-26T01:00:50;101531.84;;;12.50;47.05
21109;BME280;10712;52.944;9.098;2023-04-26T01:03:16;101522.78;;;12.53;46.99
21109;BME280;10712;52.944;9.098;2023-04-26T01:05:43;101527.59;;;12.46;46.96
21109;BME280;10712;52.944;9.098;2023-04-26T01:08:09;101525.72;;;12.48;46.93
21109;BME280;10712;52.944;9.098;2023-04-26T01:10:35;101527.00;;;12.41;47.23
21109;BME280;10712;52.944;9.098;2023-04-26T01:13:02;101518.19;;;12.39;47.12
21109;BME280;10712;52.944;9.098;2023-04-26T01:15:28;101522.44;;;12.43;47.07
21109;BME280;10712;52.944;9.098;2023-04-26T01:17:58;101523.00;;;12.33;47.05
21109;BME280;10712;52.944;9.098;2023-04-26T01:20:24;101525.91;;;12.28;47.14
21109;BME280;10712;52.944;9.098;2023-04-26T01:22:50;101531.41;;;12.25;47.31
21109;BME280;10712;52.944;9.098;2023-04-26T01:25:17;101536.84;;;12.23;47.34
21109;BME280;10712;52.944;9.098;2023-04-26T01:27:43;101545.28;;;12.16;47.38
21109;BME280;10712;52.944;9.098;2023-04-26T01:30:09;101536.47;;;12.14;47.18
21109;BME280;10712;52.944;9.098;2023-04-26T01:32:35;101540.00;;;12.14;47.32
21109;BME280;10712;52.944;9.098;2023-04-26T01:35:01;101534.72;;;12.13;47.18
21109;BME280;10712;52.944;9.098;2023-04-26T01:37:27;101542.13;;;12.08;47.22
21109;BME280;10712;52.944;9.098;2023-04-26T01:39:53;101538.88;;;12.18;47.05
21109;BME280;10712;52.944;9.098;2023-04-26T01:42:19;101538.91;;;12.01;47.31
21109;BME280;10712;52.944;9.098;2023-04-26T01:44:44;101533.50;;;12.03;47.34
21109;BME280;10712;52.944;9.098;2023-04-26T01:47:10;101537.25;;;11.99;47.33
21109;BME280;10712;52.944;9.098;2023-04-26T01:49:36;101539.91;;;11.99;47.28
21109;BME280;10712;52.944;9.098;2023-04-26T01:52:02;101535.69;;;11.95;47.60
21109;BME280;10712;52.944;9.098;2023-04-26T01:54:29;101541.03;;;11.95;47.63
21109;BME280;10712;52.944;9.098;2023-04-26T01:56:55;101539.13;;;11.97;47.66
21109;BME280;10712;52.944;9.098;2023-04-26T01:59:21;101549.81;;;11.97;47.53
21109;BME280;10712;52.944;9.098;2023-04-26T02:01:47;101549.97;;;11.94;47.81
21109;BME280;10712;52.944;9.098;2023-04-26T02:04:12;101543.63;;;11.96;47.67
21109;BME280;10712;52.944;9.098;2023-04-26T02:06:38;101545.44;;;11.96;47.78
21109;BME280;10712;52.944;9.098;2023-04-26T02:09:06;101533.97;;;11.94;47.74
21109;BME280;10712;52.944;9.098;2023-04-26T02:11:34;101541.91;;;11.95;47.83
21109;BME280;10712;52.944;9.098;2023-04-26T02:14:00;101544.47;;;11.97;47.83
21109;BME280;10712;52.944;9.098;2023-04-26T02:16:26;101540.00;;;11.97;47.96
21109;BME280;10712;52.944;9.098;2023-04-26T02:18:52;101544.19;;;12.03;47.99
21109;BME280;10712;52.944;9.098;2023-04-26T02:21:20;101540.25;;;12.10;47.86
21109;BME280;10712;52.944;9.098;2023-04-26T02:23:46;101538.34;;;12.12;47.99
21109;BME280;10712;52.944;9.098;2023-04-26T02:26:13;101540.63;;;12.19;47.91
21109;BME280;10712;52.944;9.098;2023-04-26T02:28:42;101539.81;;;12.17;48.13
21109;BME280;10712;52.944;9.098;2023-04-26T02:31:08;101545.81;;;12.22;48.17
21109;BME280;10712;52.944;9.098;2023-04-26T02:33:34;101540.22;;;12.27;47.98
21109;BME280;10712;52.944;9.098;2023-04-26T02:36:04;101544.63;;;12.28;47.94
21109;BME280;10712;52.944;9.098;2023-04-26T02:38:34;101546.44;;;12.28;48.07
21109;BME280;10712;52.944;9.098;2023-04-26T02:41:03;101542.75;;;12.30;47.96
21109;BME280;10712;52.944;9.098;2023-04-26T02:43:30;101544.28;;;12.34;48.05
21109;BME280;10712;52.944;9.098;2023-04-26T02:45:56;101544.16;;;12.37;47.98
21109;BME280;10712;52.944;9.098;2023-04-26T02:48:24;101552.31;;;12.34;48.06
21109;BME280;10712;52.944;9.098;2023-04-26T02:50:50;101536.88;;;12.39;47.99
21109;BME280;10712;52.944;9.098;2023-04-26T02:53:16;101537.75;;;12.40;47.76
21109;BME280;10712;52.944;9.098;2023-04-26T02:55:42;101538.88;;;12.36;48.05
21109;BME280;10712;52.944;9.098;2023-04-26T02:58:08;101536.75;;;12.42;47.74
21109;BME280;10712;52.944;9.098;2023-04-26T03:00:34;101540.81;;;12.32;47.88
21109;BME280;10712;52.944;9.098;2023-04-26T03:03:00;101530.13;;;12.32;47.82
21109;BME280;10712;52.944;9.098;2023-04-26T03:05:26;101536.69;;;12.27;47.81
21109;BME280;10712;52.944;9.098;2023-04-26T03:07:52;101546.69;;;12.23;47.86
21109;BME280;10712;52.944;9.098;2023-04-26T03:10:18;101539.94;;;12.16;47.99
21109;BME280;10712;52.944;9.098;2023-04-26T03:12:43;101538.34;;;12.12;47.87
21109;BME280;10712;52.944;9.098;2023-04-26T03:15:09;101535.59;;;12.13;47.87
21109;BME280;10712;52.944;9.098;2023-04-26T03:17:37;101535.06;;;12.07;47.92
21109;BME280;10712;52.944;9.098;2023-04-26T03:20:04;101535.19;;;12.04;48.00
21109;BME280;10712;52.944;9.098;2023-04-26T03:22:32;101527.28;;;12.02;48.16
21109;BME280;10712;52.944;9.098;2023-04-26T03:24:58;101539.13;;;11.97;47.84
21109;BME280;10712;52.944;9.098;2023-04-26T03:27:26;101533.63;;;12.00;48.05
21109;BME280;10712;52.944;9.098;2023-04-26T03:29:52;101532.78;;;11.99;47.93
21109;BME280;10712;52.944;9.098;2023-04-26T03:32:18;101538.69;;;11.89;48.11
21109;BME280;10712;52.944;9.098;2023-04-26T03:34:43;101544.22;;;11.84;48.09
21109;BME280;10712;52.944;9.098;2023-04-26T03:37:09;101536.00;;;11.89;47.97
21109;BME280;10712;52.944;9.098;2023-04-26T03:39:37;101541.50;;;11.86;48.08
21109;BME280;10712;52.944;9.098;2023-04-26T03:42:03;101543.53;;;11.80;47.99
21109;BME280;10712;52.944;9.098;2023-04-26T03:44:28;101534.75;;;11.78;47.96
21109;BME280;10712;52.944;9.098;2023-04-26T03:46:55;101543.84;;;11.74;48.06
21109;BME280;10712;52.944;9.098;2023-04-26T03:49:21;101549.22;;;11.73;48.28
21109;BME280;10712;52.944;9.098;2023-04-26T03:51:47;101544.81;;;11.72;48.07
21109;BME280;10712;52.944;9.098;2023-04-26T03:54:14;101546.00;;;11.66;48.16
21109;BME280;10712;52.944;9.098;2023-04-26T03:56:40;101545.94;;;11.68;48.12
21109;BME280;10712;52.944;9.098;2023-04-26T03:59:07;101551.34;;;11.66;48.14
21109;BME280;10712;52.944;9.098;2023-04-26T04:01:34;101546.94;;;11.65;48.39
21109;BME280;10712;52.944;9.098;2023-04-26T04:04:01;101541.47;;;11.68;48.31
21109;BME280;10712;52.944;9.098;2023-04-26T04:06:28;101543.84;;;11.74;48.37
21109;BME280;10712;52.944;9.098;2023-04-26T04:08:54;101547.28;;;11.76;48.30
21109;BME280;10712;52.944;9.098;2023-04-26T04:11:21;101541.19;;;11.74;48.31
21109;BME280;10712;52.944;9.098;2023-04-26T04:13:47;101544.56;;;11.78;48.50
21109;BME280;10712;52.944;9.098;2023-04-26T04:16:13;101543.53;;;11.80;48.42
21109;BME280;10712;52.944;9.098;2023-04-26T04:18:40;101539.81;;;11.83;48.26
21109;BME280;10712;52.944;9.098;2023-04-26T04:21:05;101543.53;;;11.80;48.47
21109;BME280;10712;52.944;9.098;2023-04-26T04:23:32;101551.53;;;11.80;48.31
21109;BME280;10712;52.944;9.098;2023-04-26T04:26:01;101553.34;;;11.80;48.35
21109;BME280;10712;52.944;9.098;2023-04-26T04:28:27;101543.38;;;11.83;48.25
21109;BME280;10712;52.944;9.098;2023-04-26T04:30:54;101557.97;;;11.76;48.41
21109;BME280;10712;52.944;9.098;2023-04-26T04:33:21;101561.44;;;11.78;48.45
21109;BME280;10712;52.944;9.098;2023-04-26T04:35:47;101556.38;;;11.72;48.41
21109;BME280;10712;52.944;9.098;2023-04-26T04:38:13;101559.03;;;11.72;48.60
21109;BME280;10712;52.944;9.098;2023-04-26T04:40:39;101554.53;;;11.74;48.32
21109;BME280;10712;52.944;9.098;2023-04-26T04:43:06;101559.03;;;11.72;48.52
21109;BME280;10712;52.944;9.098;2023-04-26T04:45:32;101552.91;;;11.70;48.63
21109;BME280;10712;52.944;9.098;2023-04-26T04:47:59;101558.94;;;11.75;48.36
21109;BME280;10712;52.944;9.098;2023-04-26T04:50:26;101556.50;;;11.69;48.46
21109;BME280;10712;52.944;9.098;2023-04-26T04:52:52;101557.63;;;11.65;48.52
21109;BME280;10712;52.944;9.098;2023-04-26T04:55:18;101562.16;;;11.63;48.61
21109;BME280;10712;52.944;9.098;2023-04-26T04:57:45;101565.47;;;11.68;48.61
21109;BME280;10712;52.944;9.098;2023-04-26T05:00:12;101576.00;;;11.71;48.72
21109;BME280;10712;52.944;9.098;2023-04-26T05:02:46;101582.97;;;11.75;48.52
21109;BME280;10712;52.944;9.098;2023-04-26T05:05:12;101573.91;;;11.78;48.44
21109;BME280;10712;52.944;9.098;2023-04-26T05:07:38;101577.13;;;11.84;48.53
21109;BME280;10712;52.944;9.098;2023-04-26T05:10:05;101575.41;;;11.83;48.49
21109;BME280;10712;52.944;9.098;2023-04-26T05:12:31;101566.47;;;11.84;48.51
21109;BME280;10712;52.944;9.098;2023-04-26T05:14:58;101570.41;;;11.95;48.53
21109;BME280;10712;52.944;9.098;2023-04-26T05:17:24;101564.81;;;11.99;48.71
21109;BME280;10712;52.944;9.098;2023-04-26T05:19:50;101561.38;;;12.14;48.73
21109;BME280;10712;52.944;9.098;2023-04-26T05:22:16;101565.59;;;12.18;48.60
21109;BME280;10712;52.944;9.098;2023-04-26T05:24:47;101566.69;;;12.32;48.69
21109;BME280;10712;52.944;9.098;2023-04-26T05:27:14;101570.69;;;12.40;48.52
21109;BME280;10712;52.944;9.098;2023-04-26T05:30:08;101570.53;;;12.43;48.58
21109;BME280;10712;52.944;9.098;2023-04-26T05:32:45;101567.06;;;12.41;48.80
21109;BME280;10712;52.944;9.098;2023-04-26T05:35:30;101576.66;;;12.45;48.62
21109;BME280;10712;52.944;9.098;2023-04-26T05:37:56;101575.88;;;12.43;48.59
21109;BME280;10712;52.944;9.098;2023-04-26T05:40:22;101575.38;;;12.52;48.45
21109;BME280;10712;52.944;9.098;2023-04-26T05:42:49;101584.38;;;12.51;48.71
21109;BME280;10712;52.944;9.098;2023-04-26T05:45:16;101572.47;;;12.57;48.41
21109;BME280;10712;52.944;9.098;2023-04-26T05:47:42;101574.75;;;12.65;48.37
21109;BME280;10712;52.944;9.098;2023-04-26T05:50:08;101572.69;;;12.70;48.41
21109;BME280;10712;52.944;9.098;2023-04-26T05:52:34;101570.47;;;12.78;48.23
21109;BME280;10712;52.944;9.098;2023-04-26T05:55:00;101577.22;;;12.85;48.09
21109;BME280;10712;52.944;9.098;2023-04-26T05:57:30;101580.16;;;12.96;47.81
21109;BME280;10712;52.944;9.098;2023-04-26T05:59:56;101579.47;;;13.08;47.81
21109;BME280;10712;52.944;9.098;2023-04-26T06:02:22;101583.84;;;13.26;47.50
21109;BME280;10712;52.944;9.098;2023-04-26T06:04:48;101583.50;;;13.32;47.52
21109;BME280;10712;52.944;9.098;2023-04-26T06:07:16;101584.59;;;13.44;46.96
21109;BME280;10712;52.944;9.098;2023-04-26T06:09:42;101581.75;;;13.47;47.28
21109;BME280;10712;52.944;9.098;2023-04-26T06:12:08;101587.13;;;13.47;46.96
21109;BME280;10712;52.944;9.098;2023-04-26T06:14:38;101592.03;;;13.55;46.77
21109;BME280;10712;52.944;9.098;2023-04-26T06:17:08;101592.78;;;13.57;46.57
21109;BME280;10712;52.944;9.098;2023-04-26T06:19:34;101587.28;;;13.60;46.81
21109;BME280;10712;52.944;9.098;2023-04-26T06:22:00;101588.06;;;13.62;46.85
21109;BME280;10712;52.944;9.098;2023-04-26T06:24:27;101590.19;;;13.71;46.72
21109;BME280;10712;52.944;9.098;2023-04-26T06:26:52;101593.47;;;13.76;46.53
21109;BME280;10712;52.944;9.098;2023-04-26T06:29:20;101590.53;;;13.80;46.56
21109;BME280;10712;52.944;9.098;2023-04-26T06:31:46;101589.47;;;13.83;46.19
21109;BME280;10712;52.944;9.098;2023-04-26T06:34:13;101584.09;;;13.83;46.23
21109;BME280;10712;52.944;9.098;2023-04-26T06:36:39;101605.53;;;13.83;46.18
21109;BME280;10712;52.944;9.098;2023-04-26T06:39:05;101596.41;;;13.87;45.97
21109;BME280;10712;52.944;9.098;2023-04-26T06:41:32;101600.44;;;13.94;45.98
21109;BME280;10712;52.944;9.098;2023-04-26T06:43:57;101607.41;;;13.97;45.87
21109;BME280;10712;52.944;9.098;2023-04-26T06:46:29;101601.44;;;14.07;45.89
21109;BME280;10712;52.944;9.098;2023-04-26T06:48:55;101597.44;;;14.14;45.62
21109;BME280;10712;52.944;9.098;2023-04-26T06:51:21;101594.22;;;14.24;45.62
21109;BME280;10712;52.944;9.098;2023-04-26T06:53:48;101598.66;;;14.39;45.30
21109;BME280;10712;52.944;9.098;2023-04-26T06:56:13;101601.97;;;14.44;45.34
21109;BME280;10712;52.944;9.098;2023-04-26T06:59:04;101612.69;;;14.44;45.80
21109;BME280;10712;52.944;9.098;2023-04-26T07:01:31;101602.84;;;14.58;45.45
21109;BME280;10712;52.944;9.098;2023-04-26T07:04:04;101614.22;;;14.62;45.29
21109;BME280;10712;52.944;9.098;2023-04-26T07:06:36;101604.75;;;14.71;45.23
21109;BME280;10712;52.944;9.098;2023-04-26T07:09:02;101615.28;;;14.74;44.76
21109;BME280;10712;52.944;9.098;2023-04-26T07:11:30;101614.22;;;14.62;44.45
21109;BME280;10712;52.944;9.098;2023-04-26T07:13:56;101604.19;;;14.66;44.35
21109;BME280;10712;52.944;9.098;2023-04-26T07:16:22;101609.38;;;14.83;44.13
21109;BME280;10712;52.944;9.098;2023-04-26T07:18:48;101608.00;;;14.76;44.13
21109;BME280;10712;52.944;9.098;2023-04-26T07:21:14;101612.13;;;14.81;44.21
21109;BME280;10712;52.944;9.098;2023-04-26T07:23:40;101616.53;;;14.82;44.22
21109;BME280;10712;52.944;9.098;2023-04-26T07:26:06;101618.47;;;14.94;44.19
21109;BME280;10712;52.944;9.098;2023-04-26T07:28:32;101615.88;;;14.93;43.80
21109;BME280;10712;52.944;9.098;2023-04-26T07:30:59;101618.19;;;14.85;43.46
21109;BME280;10712;52.944;9.098;2023-04-26T07:33:26;101625.94;;;14.89;43.61
21109;BME280;10712;52.944;9.098;2023-04-26T07:35:57;101628.63;;;15.04;43.91
21109;BME280;10712;52.944;9.098;2023-04-26T07:38:24;101624.59;;;15.11;43.41
21109;BME280;10712;52.944;9.098;2023-04-26T07:40:50;101625.16;;;15.16;42.78
21109;BME280;10712;52.944;9.098;2023-04-26T07:43:17;101621.13;;;15.09;42.94
21109;BME280;10712;52.944;9.098;2023-04-26T07:45:43;101627.84;;;15.16;43.33
21109;BME280;10712;52.944;9.098;2023-04-26T07:48:11;101618.25;;;15.26;42.93
21109;BME280;10712;52.944;9.098;2023-04-26T07:50:37;101612.31;;;15.35;42.78
21109;BME280;10712;52.944;9.098;2023-04-26T07:53:03;101621.78;;;15.41;42.69
21109;BME280;10712;52.944;9.098;2023-04-26T07:55:28;101629.53;;;15.45;42.65
21109;BME280;10712;52.944;9.098;2023-04-26T07:57:54;101624.47;;;15.55;42.66
21109;BME280;10712;52.944;9.098;2023-04-26T08:00:20;101618.03;;;15.57;42.57
21109;BME280;10712;52.944;9.098;2023-04-26T08:02:48;101623.56;;;15.68;42.33
21109;BME280;10712;52.944;9.098;2023-04-26T08:05:15;101620.25;;;15.77;42.35
21109;BME280;10712;52.944;9.098;2023-04-26T08:07:42;101621.47;;;15.86;42.74
21109;BME280;10712;52.944;9.098;2023-04-26T08:10:09;101623.56;;;15.95;42.12
21109;BME280;10712;52.944;9.098;2023-04-26T08:12:37;101619.66;;;15.87;41.27
21109;BME280;10712;52.944;9.098;2023-04-26T08:15:04;101623.84;;;15.91;40.85
21109;BME280;10712;52.944;9.098;2023-04-26T08:17:31;101625.06;;;15.99;40.56
21109;BME280;10712;52.944;9.098;2023-04-26T08:19:59;101623.41;;;16.11;40.31
21109;BME280;10712;52.944;9.098;2023-04-26T08:22:25;101628.13;;;16.07;40.00
21109;BME280;10712;52.944;9.098;2023-04-26T08:24:54;101628.78;;;16.11;40.25
21109;BME280;10712;52.944;9.098;2023-04-26T08:27:21;101624.69;;;16.18;39.99
21109;BME280;10712;52.944;9.098;2023-04-26T08:29:48;101626.66;;;16.29;39.93
21109;BME280;10712;52.944;9.098;2023-04-26T08:32:13;101621.31;;;16.41;39.88
21109;BME280;10712;52.944;9.098;2023-04-26T08:34:39;101625.63;;;16.57;39.72
21109;BME280;10712;52.944;9.098;2023-04-26T08:37:09;101624.66;;;16.58;39.37
21109;BME280;10712;52.944;9.098;2023-04-26T08:39:35;101622.03;;;16.70;40.11
21109;BME280;10712;52.944;9.098;2023-04-26T08:42:12;101628.69;;;16.90;39.94
21109;BME280;10712;52.944;9.098;2023-04-26T08:44:42;101622.34;;;16.91;39.90
21109;BME280;10712;52.944;9.098;2023-04-26T08:47:28;101620.06;;;16.98;39.49
21109;BME280;10712;52.944;9.098;2023-04-26T08:50:02;101632.66;;;16.97;38.93
21109;BME280;10712;52.944;9.098;2023-04-26T08:52:30;101623.84;;;16.95;38.28
21109;BME280;10712;52.944;9.098;2023-04-26T08:54:58;101627.63;;;16.92;39.03
21109;BME280;10712;52.944;9.098;2023-04-26T08:57:25;101620.41;;;16.93;38.44
21109;BME280;10712;52.944;9.098;2023-04-26T08:59:52;101625.03;;;16.91;38.81
21109;BME280;10712;52.944;9.098;2023-04-26T09:02:22;101624.19;;;16.78;38.71
21109;BME280;10712;52.944;9.098;2023-04-26T09:04:49;101627.59;;;16.67;38.85
21109;BME280;10712;52.944;9.098;2023-04-26T09:07:24;101635.38;;;16.72;38.77
21109;BME280;10712;52.944;9.098;2023-04-26T09:09:53;101623.50;;;16.74;38.80
21109;BME280;10712;52.944;9.098;2023-04-26T09:12:21;101631.28;;;16.79;38.72
21109;BME280;10712;52.944;9.098;2023-04-26T09:14:47;101628.91;;;16.87;38.64
21109;BME280;10712;52.944;9.098;2023-04-26T09:17:37;101614.59;;;16.99;38.09
21109;BME280;10712;52.944;9.098;2023-04-26T09:20:29;101626.41;;;17.09;38.37
21109;BME280;10712;52.944;9.098;2023-04-26T09:23:09;101634.72;;;16.93;37.79
21109;BME280;10712;52.944;9.098;2023-04-26T09:25:36;101633.53;;;16.98;38.22
21109;BME280;10712;52.944;9.098;2023-04-26T09:28:03;101631.91;;;16.95;38.28
21109;BME280;10712;52.944;9.098;2023-04-26T09:30:31;101632.16;;;16.92;38.46
21109;BME280;10712;52.944;9.098;2023-04-26T09:33:02;101639.25;;;16.93;38.36
21109;BME280;10712;52.944;9.098;2023-04-26T09:35:40;101636.44;;;16.82;38.08
21109;BME280;10712;52.944;9.098;2023-04-26T09:38:17;101636.44;;;16.82;37.64
21109;BME280;10712;52.944;9.098;2023-04-26T09:40:48;101642.69;;;16.70;37.76
21109;BME280;10712;52.944;9.098;2023-04-26T09:43:19;101640.41;;;16.64;37.82
21109;BME280;10712;52.944;9.098;2023-04-26T09:45:47;101642.25;;;16.63;37.98
21109;BME280;10712;52.944;9.098;2023-04-26T09:48:21;101642.88;;;16.67;38.03
21109;BME280;10712;52.944;9.098;2023-04-26T09:50:53;101640.75;;;16.72;38.49
21109;BME280;10712;52.944;9.098;2023-04-26T09:53:41;101643.44;;;16.84;38.03
21109;BME280;10712;52.944;9.098;2023-04-26T09:56:15;101649.69;;;16.85;37.96
21109;BME280;10712;52.944;9.098;2023-04-26T10:01:18;101646.34;;;16.81;36.99
21109;BME280;10712;52.944;9.098;2023-04-26T10:03:45;101647.88;;;16.85;37.28
21109;BME280;10712;52.944;9.098;2023-04-26T10:06:12;101646.47;;;16.80;37.08
21109;BME280;10712;52.944;9.098;2023-04-26T10:08:38;101647.44;;;16.79;37.32
21109;BME280;10712;52.944;9.098;2023-04-26T10:11:04;101653.25;;;16.73;37.29
21109;BME280;10712;52.944;9.098;2023-04-26T10:13:32;101644.59;;;16.68;37.30
21109;BME280;10712;52.944;9.098;2023-04-26T10:15:59;101645.56;;;16.67;36.91
21109;BME280;10712;52.944;9.098;2023-04-26T10:18:27;101654.47;;;16.54;37.26
21109;BME280;10712;52.944;9.098;2023-04-26T10:20:57;101648.88;;;16.58;37.36
21109;BME280;10712;52.944;9.098;2023-04-26T10:23:24;101660.72;;;16.55;37.44
21109;BME280;10712;52.944;9.098;2023-04-26T10:25:51;101655.66;;;16.50;37.77
21109;BME280;10712;52.944;9.098;2023-04-26T10:31:06;101653.16;;;16.47;38.19
21109;BME280;10712;52.944;9.098;2023-04-26T10:33:33;101650.38;;;16.49;38.70
21109;BME280;10712;52.944;9.098;2023-04-26T10:36:12;101642.63;;;16.44;38.68
21109;BME280;10712;52.944;9.098;2023-04-26T10:39:18;101652.00;;;16.51;39.25
21109;BME280;10712;52.944;9.098;2023-04-26T10:41:46;101651.47;;;16.59;39.87
21109;BME280;10712;52.944;9.098;2023-04-26T10:44:41;101649.25;;;16.66;39.42
21109;BME280;10712;52.944;9.098;2023-04-26T10:49:46;101650.22;;;16.65;39.52
21109;BME280;10712;52.944;9.098;2023-04-26T10:52:16;101654.31;;;16.70;39.48
21109;BME280;10712;52.944;9.098;2023-04-26T10:57:20;101648.88;;;16.58;39.34
21109;BME280;10712;52.944;9.098;2023-04-26T11:03:09;101660.56;;;16.71;39.85
21109;BME280;10712;52.944;9.098;2023-04-26T11:05:53;101647.19;;;16.69;39.90
21109;BME280;10712;52.944;9.098;2023-04-26T11:08:27;101648.81;;;16.72;39.36
21109;BME280;10712;52.944;9.098;2023-04-26T11:13:30;101653.44;;;16.95;38.67
21109;BME280;10712;52.944;9.098;2023-04-26T11:16:02;101643.75;;;17.05;38.58
21109;BME280;10712;52.944;9.098;2023-04-26T11:18:30;101645.03;;;17.12;38.50
21109;BME280;10712;52.944;9.098;2023-04-26T11:21:00;101641.03;;;17.30;38.29
21109;BME280;10712;52.944;9.098;2023-04-26T11:23:28;101650.91;;;17.43;38.62
21109;BME280;10712;52.944;9.098;2023-04-26T11:26:02;101638.19;;;17.45;37.85
21109;BME280;10712;52.944;9.098;2023-04-26T11:28:35;101636.31;;;17.58;38.48
21109;BME280;10712;52.944;9.098;2023-04-26T11:31:05;101641.84;;;17.69;38.45
21109;BME280;10712;52.944;9.098;2023-04-26T11:33:32;101630.47;;;17.77;37.71
21109;BME280;10712;52.944;9.098;2023-04-26T11:36:02;101633.84;;;17.67;37.42
21109;BME280;10712;52.944;9.098;2023-04-26T11:38:28;101646.25;;;17.70;37.50
21109;BME280;10712;52.944;9.098;2023-04-26T11:41:02;101649.06;;;17.56;37.54
21109;BME280;10712;52.944;9.098;2023-04-26T11:43:33;101646.94;;;17.36;38.54
21109;BME280;10712;52.944;9.098;2023-04-26T11:45:59;101653.66;;;17.17;38.69
21109;BME280;10712;52.944;9.098;2023-04-26T11:48:27;101652.59;;;16.82;39.39
21109;BME280;10712;52.944;9.098;2023-04-26T11:50:57;101662.72;;;16.66;40.31
21109;BME280;10712;52.944;9.098;2023-04-26T11:53:40;101659.50;;;16.46;40.94
21109;BME280;10712;52.944;9.098;2023-04-26T11:56:33;101660.59;;;16.44;41.44
21109;BME280;10712;52.944;9.098;2023-04-26T11:58:59;101669.09;;;16.50;41.65
21109;BME280;10712;52.944;9.098;2023-04-26T12:01:27;101661.81;;;16.52;41.96
21109;BME280;10712;52.944;9.098;2023-04-26T12:04:08;101661.38;;;16.59;41.99
21109;BME280;10712;52.944;9.098;2023-04-26T12:06:43;101657.09;;;16.69;42.09
21109;BME280;10712;52.944;9.098;2023-04-26T12:09:10;101660.13;;;16.77;42.03
21109;BME280;10712;52.944;9.098;2023-04-26T12:11:36;101657.75;;;16.85;42.00
21109;BME280;10712;52.944;9.098;2023-04-26T12:14:03;101660.44;;;16.98;42.03
21109;BME280;10712;52.944;9.098;2023-04-26T12:16:29;101660.97;;;17.03;41.47
21109;BME280;10712;52.944;9.098;2023-04-26T12:18:55;101660.97;;;17.15;41.82
21109;BME280;10712;52.944;9.098;2023-04-26T12:21:24;101659.66;;;17.33;41.56
21109;BME280;10712;52.944;9.098;2023-04-26T12:23:50;101665.34;;;17.54;41.83
21109;BME280;10712;52.944;9.098;2023-04-26T12:26:16;101657.75;;;17.72;41.68
21109;BME280;10712;52.944;9.098;2023-04-26T12:28:45;101662.59;;;17.80;41.04
21109;BME280;10712;52.944;9.098;2023-04-26T12:31:11;101653.19;;;17.85;40.34
21109;BME280;10712;52.944;9.098;2023-04-26T12:33:37;101653.72;;;17.90;40.06
21109;BME280;10712;52.944;9.098;2023-04-26T12:36:09;101645.47;;;18.04;39.40
21109;BME280;10712;52.944;9.098;2023-04-26T12:38:36;101649.41;;;18.12;39.55
21109;BME280;10712;52.944;9.098;2023-04-26T12:41:02;101649.06;;;18.16;39.35
21109;BME280;10712;52.944;9.098;2023-04-26T12:43:28;101645.59;;;18.14;39.32
21109;BME280;10712;52.944;9.098;2023-04-26T12:45:53;101644.59;;;18.04;39.53
21109;BME280;10712;52.944;9.098;2023-04-26T12:48:19;101652.84;;;17.90;39.63
21109;BME280;10712;52.944;9.098;2023-04-26T12:50:45;101654.59;;;17.78;39.39
21109;BME280;10712;52.944;9.098;2023-04-26T12:53:11;101659.13;;;17.78;38.84
21109;BME280;10712;52.944;9.098;2023-04-26T12:55:38;101667.69;;;17.59;38.92
21109;BME280;10712;52.944;9.098;2023-04-26T12:58:04;101678.72;;;17.43;39.37
21109;BME280;10712;52.944;9.098;2023-04-26T13:00:30;101674.75;;;17.23;39.62
21109;BME280;10712;52.944;9.098;2023-04-26T13:02:56;101669.81;;;17.05;39.77
21109;BME280;10712;52.944;9.098;2023-04-26T13:05:22;101679.63;;;16.93;40.21
21109;BME280;10712;52.944;9.098;2023-04-26T13:07:51;101668.72;;;16.82;40.81
21109;BME280;10712;52.944;9.098;2023-04-26T13:10:17;101666.69;;;16.73;40.99
21109;BME280;10712;52.944;9.098;2023-04-26T13:12:43;101664.75;;;16.75;41.23